sensor_id;sensor_type;location;lat;lon;timestamp;P1;durP1;ratioP1;P2;durP2;ratioP2
47373;SDS011;33123;50.118;10.272;2022-11-06T00:00:43;5.70;;;3.67;;
47373;SDS011;33123;50.118;10.272;2022-11-06T00:03:10;7.47;;;4.05;;
47373;SDS011;33123;50.118;10.272;2022-11-06T00:05:39;6.05;;;4.32;;
47373;SDS011;33123;50.118;10.272;2022-11-06T00:08:25;4.72;;;3.95;;
47373;SDS011;33123;50.118;10.272;2022-11-06T00:10:56;6.45;;;5.30;;
47373;SDS011;33123;50.118;10.272;2022-11-06T00:13:23;3.45;;;3.10;;
47373;SDS011;33123;50.118;10.272;2022-11-06T00:15:49;5.57;;;3.58;;
47373;SDS011;33123;50.118;10.272;2022-11-06T00:18:16;5.30;;;4.72;;
47373;SDS011;33123;50.118;10.272;2022-11-06T00:20:44;5.55;;;4.15;;
47373;SDS011;33123;50.118;10.272;2022-11-06T00:23:11;4.53;;;3.47;;
47373;SDS011;33123;50.118;10.272;2022-11-06T00:25:38;6.85;;;4.13;;
47373;SDS011;33123;50.118;10.272;2022-11-06T00:28:05;5.10;;;4.70;;
47373;SDS011;33123;50.118;10.272;2022-11-06T00:30:32;4.47;;;4.07;;
47373;SDS011;33123;50.118;10.272;2022-11-06T00:32:58;4.10;;;3.80;;
47373;SDS011;33123;50.118;10.272;2022-11-06T00:35:25;4.10;;;3.70;;
47373;SDS011;33123;50.118;10.272;2022-11-06T00:37:53;3.17;;;2.88;;
47373;SDS011;33123;50.118;10.272;2022-11-06T00:40:20;7.57;;;4.55;;
47373;SDS011;33123;50.118;10.272;2022-11-06T00:42:46;6.18;;;4.32;;
47373;SDS011;33123;50.118;10.272;2022-11-06T00:45:13;4.57;;;4.13;;
47373;SDS011;33123;50.118;10.272;2022-11-06T00:47:40;4.68;;;4.22;;
47373;SDS011;33123;50.118;10.272;2022-11-06T00:50:06;11.85;;;4.80;;
47373;SDS011;33123;50.118;10.272;2022-11-06T00:52:33;6.63;;;5.53;;
47373;SDS011;33123;50.118;10.272;2022-11-06T00:55:01;4.45;;;3.53;;
47373;SDS011;33123;50.118;10.272;2022-11-06T00:57:28;5.28;;;4.78;;
47373;SDS011;33123;50.118;10.272;2022-11-06T00:59:55;5.90;;;5.35;;
47373;SDS011;33123;50.118;10.272;2022-11-06T01:02:21;4.65;;;4.25;;
47373;SDS011;33123;50.118;10.272;2022-11-06T01:04:48;5.70;;;5.20;;
47373;SDS011;33123;50.118;10.272;2022-11-06T01:07:14;3.70;;;3.13;;
47373;SDS011;33123;50.118;10.272;2022-11-06T01:09:41;4.05;;;3.72;;
47373;SDS011;33123;50.118;10.272;2022-11-06T01:12:09;5.30;;;3.72;;
47373;SDS011;33123;50.118;10.272;2022-11-06T01:14:37;5.15;;;4.22;;
47373;SDS011;33123;50.118;10.272;2022-11-06T01:17:04;4.72;;;4.32;;
47373;SDS011;33123;50.118;10.272;2022-11-06T01:19:31;3.95;;;3.63;;
47373;SDS011;33123;50.118;10.272;2022-11-06T01:21:57;6.38;;;3.63;;
47373;SDS011;33123;50.118;10.272;2022-11-06T01:24:24;4.13;;;3.60;;
47373;SDS011;33123;50.118;10.272;2022-11-06T01:26:52;6.63;;;5.95;;
47373;SDS011;33123;50.118;10.272;2022-11-06T01:29:21;5.35;;;4.95;;
47373;SDS011;33123;50.118;10.272;2022-11-06T01:31:48;5.07;;;4.65;;
47373;SDS011;33123;50.118;10.272;2022-11-06T01:34:15;6.10;;;5.50;;
47373;SDS011;33123;50.118;10.272;2022-11-06T01:36:42;5.53;;;5.00;;
47373;SDS011;33123;50.118;10.272;2022-11-06T01:39:11;7.55;;;4.38;;
47373;SDS011;33123;50.118;10.272;2022-11-06T01:41:41;5.20;;;4.80;;
47373;SDS011;33123;50.118;10.272;2022-11-06T01:47:25;5.85;;;5.32;;
47373;SDS011;33123;50.118;10.272;2022-11-06T01:49:54;4.47;;;4.07;;
47373;SDS011;33123;50.118;10.272;2022-11-06T01:52:23;6.47;;;5.30;;
47373;SDS011;33123;50.118;10.272;2022-11-06T01:54:52;5.55;;;5.03;;
47373;SDS011;33123;50.118;10.272;2022-11-06T01:57:22;4.63;;;4.32;;
47373;SDS011;33123;50.118;10.272;2022-11-06T01:59:49;5.10;;;4.70;;
47373;SDS011;33123;50.118;10.272;2022-11-06T02:02:18;4.78;;;4.35;;
47373;SDS011;33123;50.118;10.272;2022-11-06T02:04:47;5.47;;;4.55;;
47373;SDS011;33123;50.118;10.272;2022-11-06T02:07:14;7.47;;;6.88;;
47373;SDS011;33123;50.118;10.272;2022-11-06T02:09:42;4.97;;;4.40;;
47373;SDS011;33123;50.118;10.272;2022-11-06T02:12:12;5.07;;;4.57;;
47373;SDS011;33123;50.118;10.272;2022-11-06T02:14:58;6.65;;;5.30;;
47373;SDS011;33123;50.118;10.272;2022-11-06T02:17:43;5.35;;;4.88;;
47373;SDS011;33123;50.118;10.272;2022-11-06T02:20:20;6.32;;;4.57;;
47373;SDS011;33123;50.118;10.272;2022-11-06T02:23:05;5.57;;;5.07;;
47373;SDS011;33123;50.118;10.272;2022-11-06T02:25:45;6.75;;;6.22;;
47373;SDS011;33123;50.118;10.272;2022-11-06T02:28:19;6.18;;;5.60;;
47373;SDS011;33123;50.118;10.272;2022-11-06T02:30:50;7.03;;;5.93;;
47373;SDS011;33123;50.118;10.272;2022-11-06T02:33:21;7.30;;;4.93;;
47373;SDS011;33123;50.118;10.272;2022-11-06T02:35:55;5.82;;;5.32;;
47373;SDS011;33123;50.118;10.272;2022-11-06T02:38:27;6.95;;;6.28;;
47373;SDS011;33123;50.118;10.272;2022-11-06T02:40:59;6.10;;;4.75;;
47373;SDS011;33123;50.118;10.272;2022-11-06T02:43:31;5.88;;;5.30;;
47373;SDS011;33123;50.118;10.272;2022-11-06T02:46:04;4.50;;;4.10;;
47373;SDS011;33123;50.118;10.272;2022-11-06T02:48:35;6.43;;;5.82;;
47373;SDS011;33123;50.118;10.272;2022-11-06T02:51:06;8.00;;;7.05;;
47373;SDS011;33123;50.118;10.272;2022-11-06T02:53:37;10.45;;;6.53;;
47373;SDS011;33123;50.118;10.272;2022-11-06T02:56:08;4.78;;;4.38;;
47373;SDS011;33123;50.118;10.272;2022-11-06T02:58:42;5.22;;;4.82;;
47373;SDS011;33123;50.118;10.272;2022-11-06T03:01:14;5.78;;;5.22;;
47373;SDS011;33123;50.118;10.272;2022-11-06T03:03:45;5.18;;;4.75;;
47373;SDS011;33123;50.118;10.272;2022-11-06T03:08:49;5.65;;;5.20;;
47373;SDS011;33123;50.118;10.272;2022-11-06T03:11:22;5.85;;;5.25;;
47373;SDS011;33123;50.118;10.272;2022-11-06T03:13:53;7.00;;;6.30;;
47373;SDS011;33123;50.118;10.272;2022-11-06T03:16:27;5.50;;;5.07;;
47373;SDS011;33123;50.118;10.272;2022-11-06T03:19:01;6.28;;;5.40;;
47373;SDS011;33123;50.118;10.272;2022-11-06T03:21:35;6.57;;;5.18;;
47373;SDS011;33123;50.118;10.272;2022-11-06T03:24:09;5.10;;;3.97;;
47373;SDS011;33123;50.118;10.272;2022-11-06T03:26:42;8.63;;;5.57;;
47373;SDS011;33123;50.118;10.272;2022-11-06T03:29:15;6.85;;;6.25;;
47373;SDS011;33123;50.118;10.272;2022-11-06T03:31:46;5.65;;;5.13;;
47373;SDS011;33123;50.118;10.272;2022-11-06T03:34:16;6.05;;;5.55;;
47373;SDS011;33123;50.118;10.272;2022-11-06T03:36:51;5.90;;;5.35;;
47373;SDS011;33123;50.118;10.272;2022-11-06T03:39:24;7.57;;;6.80;;
47373;SDS011;33123;50.118;10.272;2022-11-06T03:41:56;8.75;;;5.03;;
47373;SDS011;33123;50.118;10.272;2022-11-06T03:44:28;6.45;;;5.75;;
47373;SDS011;33123;50.118;10.272;2022-11-06T03:46:59;5.97;;;5.43;;
47373;SDS011;33123;50.118;10.272;2022-11-06T03:49:28;6.53;;;5.93;;
47373;SDS011;33123;50.118;10.272;2022-11-06T03:51:59;8.43;;;6.00;;
47373;SDS011;33123;50.118;10.272;2022-11-06T03:54:30;5.95;;;5.45;;
47373;SDS011;33123;50.118;10.272;2022-11-06T03:57:04;6.85;;;6.15;;
47373;SDS011;33123;50.118;10.272;2022-11-06T03:59:38;6.65;;;6.15;;
47373;SDS011;33123;50.118;10.272;2022-11-06T04:02:08;6.65;;;6.10;;
47373;SDS011;33123;50.118;10.272;2022-11-06T04:04:40;8.15;;;7.38;;
47373;SDS011;33123;50.118;10.272;2022-11-06T04:07:12;6.35;;;4.65;;
47373;SDS011;33123;50.118;10.272;2022-11-06T04:09:42;4.97;;;4.55;;
47373;SDS011;33123;50.118;10.272;2022-11-06T04:12:32;7.47;;;6.82;;
47373;SDS011;33123;50.118;10.272;2022-11-06T04:15:21;4.97;;;3.95;;
47373;SDS011;33123;50.118;10.272;2022-11-06T04:17:49;6.00;;;5.45;;
47373;SDS011;33123;50.118;10.272;2022-11-06T04:20:17;7.13;;;5.85;;
47373;SDS011;33123;50.118;10.272;2022-11-06T04:23:01;9.00;;;5.63;;
47373;SDS011;33123;50.118;10.272;2022-11-06T04:25:38;5.75;;;5.20;;
47373;SDS011;33123;50.118;10.272;2022-11-06T04:28:35;4.40;;;4.07;;
47373;SDS011;33123;50.118;10.272;2022-11-06T04:31:10;4.57;;;4.22;;
47373;SDS011;33123;50.118;10.272;2022-11-06T04:33:43;4.05;;;3.53;;
47373;SDS011;33123;50.118;10.272;2022-11-06T04:36:16;4.43;;;4.00;;
47373;SDS011;33123;50.118;10.272;2022-11-06T04:38:52;4.53;;;4.10;;
47373;SDS011;33123;50.118;10.272;2022-11-06T04:41:26;5.18;;;4.75;;
47373;SDS011;33123;50.118;10.272;2022-11-06T04:44:00;4.15;;;3.50;;
47373;SDS011;33123;50.118;10.272;2022-11-06T04:46:31;7.57;;;4.82;;
47373;SDS011;33123;50.118;10.272;2022-11-06T04:49:03;4.78;;;4.38;;
47373;SDS011;33123;50.118;10.272;2022-11-06T04:51:32;5.38;;;4.05;;
47373;SDS011;33123;50.118;10.272;2022-11-06T04:54:03;4.10;;;3.70;;
47373;SDS011;33123;50.118;10.272;2022-11-06T04:56:32;3.58;;;3.28;;
47373;SDS011;33123;50.118;10.272;2022-11-06T04:59:00;3.60;;;3.30;;
47373;SDS011;33123;50.118;10.272;2022-11-06T05:01:27;5.22;;;3.88;;
47373;SDS011;33123;50.118;10.272;2022-11-06T05:03:55;4.55;;;3.30;;
47373;SDS011;33123;50.118;10.272;2022-11-06T05:06:21;4.88;;;4.10;;
47373;SDS011;33123;50.118;10.272;2022-11-06T05:08:48;3.40;;;3.10;;
47373;SDS011;33123;50.118;10.272;2022-11-06T05:11:14;6.65;;;4.43;;
47373;SDS011;33123;50.118;10.272;2022-11-06T05:13:41;4.88;;;4.03;;
47373;SDS011;33123;50.118;10.272;2022-11-06T05:16:07;3.45;;;3.15;;
47373;SDS011;33123;50.118;10.272;2022-11-06T05:18:34;4.47;;;4.00;;
47373;SDS011;33123;50.118;10.272;2022-11-06T05:21:02;5.95;;;3.67;;
47373;SDS011;33123;50.118;10.272;2022-11-06T05:23:48;4.30;;;3.00;;
47373;SDS011;33123;50.118;10.272;2022-11-06T05:26:14;3.17;;;2.97;;
47373;SDS011;33123;50.118;10.272;2022-11-06T05:28:41;4.10;;;3.42;;
47373;SDS011;33123;50.118;10.272;2022-11-06T05:31:07;3.20;;;2.90;;
47373;SDS011;33123;50.118;10.272;2022-11-06T05:33:34;3.55;;;3.25;;
47373;SDS011;33123;50.118;10.272;2022-11-06T05:36:00;5.00;;;4.03;;
47373;SDS011;33123;50.118;10.272;2022-11-06T05:38:29;2.80;;;2.50;;
47373;SDS011;33123;50.118;10.272;2022-11-06T05:40:56;2.92;;;2.70;;
47373;SDS011;33123;50.118;10.272;2022-11-06T05:43:22;4.93;;;3.65;;
47373;SDS011;33123;50.118;10.272;2022-11-06T05:45:49;4.70;;;3.25;;
47373;SDS011;33123;50.118;10.272;2022-11-06T05:48:16;3.33;;;2.72;;
47373;SDS011;33123;50.118;10.272;2022-11-06T05:50:42;5.28;;;3.25;;
47373;SDS011;33123;50.118;10.272;2022-11-06T05:53:10;5.63;;;3.78;;
47373;SDS011;33123;50.118;10.272;2022-11-06T05:55:37;4.93;;;3.40;;
47373;SDS011;33123;50.118;10.272;2022-11-06T05:58:04;4.03;;;3.55;;
47373;SDS011;33123;50.118;10.272;2022-11-06T06:00:30;4.78;;;2.78;;
47373;SDS011;33123;50.118;10.272;2022-11-06T06:02:57;2.90;;;2.60;;
47373;SDS011;33123;50.118;10.272;2022-11-06T06:05:24;2.90;;;2.70;;
47373;SDS011;33123;50.118;10.272;2022-11-06T06:07:50;4.20;;;3.22;;
47373;SDS011;33123;50.118;10.272;2022-11-06T06:10:18;3.20;;;2.90;;
47373;SDS011;33123;50.118;10.272;2022-11-06T06:12:45;4.40;;;4.00;;
47373;SDS011;33123;50.118;10.272;2022-11-06T06:15:11;2.88;;;2.67;;
47373;SDS011;33123;50.118;10.272;2022-11-06T06:17:39;3.30;;;2.97;;
47373;SDS011;33123;50.118;10.272;2022-11-06T06:20:06;2.85;;;2.55;;
47373;SDS011;33123;50.118;10.272;2022-11-06T06:22:33;4.78;;;4.38;;
47373;SDS011;33123;50.118;10.272;2022-11-06T06:25:00;3.30;;;3.00;;
47373;SDS011;33123;50.118;10.272;2022-11-06T06:27:28;3.22;;;2.92;;
47373;SDS011;33123;50.118;10.272;2022-11-06T06:29:55;3.45;;;3.10;;
47373;SDS011;33123;50.118;10.272;2022-11-06T06:32:22;4.10;;;3.80;;
47373;SDS011;33123;50.118;10.272;2022-11-06T06:34:48;4.35;;;3.55;;
47373;SDS011;33123;50.118;10.272;2022-11-06T06:37:15;3.58;;;3.25;;
47373;SDS011;33123;50.118;10.272;2022-11-06T06:39:41;3.65;;;3.35;;
47373;SDS011;33123;50.118;10.272;2022-11-06T06:42:08;2.92;;;2.72;;
47373;SDS011;33123;50.118;10.272;2022-11-06T06:44:36;3.95;;;3.65;;
47373;SDS011;33123;50.118;10.272;2022-11-06T06:47:02;4.15;;;3.65;;
47373;SDS011;33123;50.118;10.272;2022-11-06T06:49:29;4.20;;;3.75;;
47373;SDS011;33123;50.118;10.272;2022-11-06T06:51:56;5.40;;;2.72;;
47373;SDS011;33123;50.118;10.272;2022-11-06T06:54:22;2.75;;;2.13;;
47373;SDS011;33123;50.118;10.272;2022-11-06T06:56:49;3.97;;;3.63;;
47373;SDS011;33123;50.118;10.272;2022-11-06T06:59:15;4.63;;;4.22;;
47373;SDS011;33123;50.118;10.272;2022-11-06T07:01:43;13.18;;;11.93;;
47373;SDS011;33123;50.118;10.272;2022-11-06T07:04:10;5.10;;;4.63;;
47373;SDS011;33123;50.118;10.272;2022-11-06T07:06:36;28.42;;;17.95;;
47373;SDS011;33123;50.118;10.272;2022-11-06T07:09:03;17.63;;;10.40;;
47373;SDS011;33123;50.118;10.272;2022-11-06T07:11:29;13.68;;;9.07;;
47373;SDS011;33123;50.118;10.272;2022-11-06T07:13:56;12.25;;;10.15;;
47373;SDS011;33123;50.118;10.272;2022-11-06T07:16:23;13.02;;;11.68;;
47373;SDS011;33123;50.118;10.272;2022-11-06T07:18:52;7.60;;;6.75;;
47373;SDS011;33123;50.118;10.272;2022-11-06T07:21:19;6.70;;;3.85;;
47373;SDS011;33123;50.118;10.272;2022-11-06T07:23:46;6.57;;;5.97;;
47373;SDS011;33123;50.118;10.272;2022-11-06T07:26:12;6.65;;;5.40;;
47373;SDS011;33123;50.118;10.272;2022-11-06T07:28:39;6.65;;;6.05;;
47373;SDS011;33123;50.118;10.272;2022-11-06T07:31:06;7.28;;;4.80;;
47373;SDS011;33123;50.118;10.272;2022-11-06T07:33:33;6.20;;;3.75;;
47373;SDS011;33123;50.118;10.272;2022-11-06T07:36:03;5.15;;;4.55;;
47373;SDS011;33123;50.118;10.272;2022-11-06T07:38:31;5.28;;;4.78;;
47373;SDS011;33123;50.118;10.272;2022-11-06T07:41:00;3.70;;;2.78;;
47373;SDS011;33123;50.118;10.272;2022-11-06T07:43:28;6.50;;;4.93;;
47373;SDS011;33123;50.118;10.272;2022-11-06T07:45:57;4.28;;;3.88;;
47373;SDS011;33123;50.118;10.272;2022-11-06T07:48:24;4.03;;;2.05;;
47373;SDS011;33123;50.118;10.272;2022-11-06T07:50:51;5.90;;;2.10;;
47373;SDS011;33123;50.118;10.272;2022-11-06T07:53:19;1.15;;;1.13;;
47373;SDS011;33123;50.118;10.272;2022-11-06T07:55:48;3.55;;;2.90;;
47373;SDS011;33123;50.118;10.272;2022-11-06T07:58:16;4.75;;;4.32;;
47373;SDS011;33123;50.118;10.272;2022-11-06T08:00:44;2.70;;;2.33;;
47373;SDS011;33123;50.118;10.272;2022-11-06T08:03:12;2.83;;;2.53;;
47373;SDS011;33123;50.118;10.272;2022-11-06T08:05:40;2.38;;;2.17;;
47373;SDS011;33123;50.118;10.272;2022-11-06T08:08:07;4.22;;;3.15;;
47373;SDS011;33123;50.118;10.272;2022-11-06T08:10:35;2.15;;;2.05;;
47373;SDS011;33123;50.118;10.272;2022-11-06T08:13:04;2.65;;;2.45;;
47373;SDS011;33123;50.118;10.272;2022-11-06T08:15:31;1.90;;;1.80;;
47373;SDS011;33123;50.118;10.272;2022-11-06T08:17:57;1.75;;;1.52;;
47373;SDS011;33123;50.118;10.272;2022-11-06T08:20:24;2.15;;;1.85;;
47373;SDS011;33123;50.118;10.272;2022-11-06T08:22:51;5.50;;;2.65;;
47373;SDS011;33123;50.118;10.272;2022-11-06T08:25:17;2.10;;;1.95;;
47373;SDS011;33123;50.118;10.272;2022-11-06T08:27:45;2.33;;;2.10;;
47373;SDS011;33123;50.118;10.272;2022-11-06T08:30:12;2.30;;;1.67;;
47373;SDS011;33123;50.118;10.272;2022-11-06T08:32:39;2.53;;;2.33;;
47373;SDS011;33123;50.118;10.272;2022-11-06T08:35:06;2.72;;;2.13;;
47373;SDS011;33123;50.118;10.272;2022-11-06T08:37:33;2.70;;;2.50;;
47373;SDS011;33123;50.118;10.272;2022-11-06T08:40:01;2.45;;;2.25;;
47373;SDS011;33123;50.118;10.272;2022-11-06T08:42:29;2.75;;;2.10;;
47373;SDS011;33123;50.118;10.272;2022-11-06T08:44:57;1.85;;;1.75;;
47373;SDS011;33123;50.118;10.272;2022-11-06T08:47:23;6.10;;;5.43;;
47373;SDS011;33123;50.118;10.272;2022-11-06T08:49:50;4.53;;;2.50;;
47373;SDS011;33123;50.118;10.272;2022-11-06T08:52:16;1.55;;;1.45;;
47373;SDS011;33123;50.118;10.272;2022-11-06T08:54:43;2.15;;;1.98;;
47373;SDS011;33123;50.118;10.272;2022-11-06T08:57:10;2.05;;;1.85;;
47373;SDS011;33123;50.118;10.272;2022-11-06T08:59:36;1.83;;;1.73;;
47373;SDS011;33123;50.118;10.272;2022-11-06T09:02:04;1.83;;;1.73;;
47373;SDS011;33123;50.118;10.272;2022-11-06T09:04:31;2.10;;;1.90;;
47373;SDS011;33123;50.118;10.272;2022-11-06T09:06:58;1.50;;;1.40;;
47373;SDS011;33123;50.118;10.272;2022-11-06T09:09:24;3.13;;;2.25;;
47373;SDS011;33123;50.118;10.272;2022-11-06T09:11:56;1.55;;;1.45;;
47373;SDS011;33123;50.118;10.272;2022-11-06T09:14:22;3.13;;;2.42;;
47373;SDS011;33123;50.118;10.272;2022-11-06T09:16:49;1.05;;;1.05;;
47373;SDS011;33123;50.118;10.272;2022-11-06T09:19:17;1.75;;;1.65;;
47373;SDS011;33123;50.118;10.272;2022-11-06T09:21:44;1.70;;;1.60;;
47373;SDS011;33123;50.118;10.272;2022-11-06T09:24:11;1.88;;;1.77;;
47373;SDS011;33123;50.118;10.272;2022-11-06T09:26:38;1.38;;;1.27;;
47373;SDS011;33123;50.118;10.272;2022-11-06T09:29:04;2.70;;;2.50;;
47373;SDS011;33123;50.118;10.272;2022-11-06T09:31:31;2.40;;;1.65;;
47373;SDS011;33123;50.118;10.272;2022-11-06T09:33:58;1.92;;;1.70;;
47373;SDS011;33123;50.118;10.272;2022-11-06T09:36:26;2.05;;;1.60;;
47373;SDS011;33123;50.118;10.272;2022-11-06T09:38:52;1.70;;;1.38;;
47373;SDS011;33123;50.118;10.272;2022-11-06T09:41:20;1.45;;;1.35;;
47373;SDS011;33123;50.118;10.272;2022-11-06T09:43:59;1.20;;;1.10;;
47373;SDS011;33123;50.118;10.272;2022-11-06T09:46:38;3.75;;;1.90;;
47373;SDS011;33123;50.118;10.272;2022-11-06T09:49:10;1.40;;;1.30;;
47373;SDS011;33123;50.118;10.272;2022-11-06T09:51:49;1.15;;;1.15;;
47373;SDS011;33123;50.118;10.272;2022-11-06T09:54:22;1.15;;;1.13;;
47373;SDS011;33123;50.118;10.272;2022-11-06T09:56:54;2.53;;;2.33;;
47373;SDS011;33123;50.118;10.272;2022-11-06T09:59:27;1.77;;;1.20;;
47373;SDS011;33123;50.118;10.272;2022-11-06T10:01:56;1.08;;;1.08;;
47373;SDS011;33123;50.118;10.272;2022-11-06T10:04:29;1.35;;;1.25;;
47373;SDS011;33123;50.118;10.272;2022-11-06T10:07:09;1.05;;;1.05;;
47373;SDS011;33123;50.118;10.272;2022-11-06T10:09:44;0.93;;;0.93;;
47373;SDS011;33123;50.118;10.272;2022-11-06T10:12:12;1.13;;;1.13;;
47373;SDS011;33123;50.118;10.272;2022-11-06T10:14:47;2.38;;;1.50;;
47373;SDS011;33123;50.118;10.272;2022-11-06T10:17:26;1.48;;;1.38;;
47373;SDS011;33123;50.118;10.272;2022-11-06T10:20:05;1.42;;;1.33;;
47373;SDS011;33123;50.118;10.272;2022-11-06T10:22:39;1.45;;;1.35;;
47373;SDS011;33123;50.118;10.272;2022-11-06T10:25:16;2.03;;;1.73;;
47373;SDS011;33123;50.118;10.272;2022-11-06T10:27:47;1.30;;;1.20;;
47373;SDS011;33123;50.118;10.272;2022-11-06T10:30:24;1.95;;;1.58;;
47373;SDS011;33123;50.118;10.272;2022-11-06T10:35:44;1.33;;;1.23;;
47373;SDS011;33123;50.118;10.272;2022-11-06T10:38:17;1.80;;;1.70;;
47373;SDS011;33123;50.118;10.272;2022-11-06T10:40:48;1.88;;;1.77;;
47373;SDS011;33123;50.118;10.272;2022-11-06T10:43:20;2.83;;;2.58;;
47373;SDS011;33123;50.118;10.272;2022-11-06T10:45:53;1.40;;;1.30;;
47373;SDS011;33123;50.118;10.272;2022-11-06T10:48:24;2.85;;;1.55;;
47373;SDS011;33123;50.118;10.272;2022-11-06T10:50:57;1.73;;;1.63;;
47373;SDS011;33123;50.118;10.272;2022-11-06T10:53:35;1.35;;;1.25;;
47373;SDS011;33123;50.118;10.272;2022-11-06T10:56:17;1.25;;;1.17;;
47373;SDS011;33123;50.118;10.272;2022-11-06T10:58:54;1.77;;;1.55;;
47373;SDS011;33123;50.118;10.272;2022-11-06T11:01:21;1.48;;;1.38;;
47373;SDS011;33123;50.118;10.272;2022-11-06T11:03:48;1.63;;;1.52;;
47373;SDS011;33123;50.118;10.272;2022-11-06T11:06:15;1.45;;;1.35;;
47373;SDS011;33123;50.118;10.272;2022-11-06T11:08:44;1.30;;;1.20;;
47373;SDS011;33123;50.118;10.272;2022-11-06T11:11:15;2.03;;;1.25;;
47373;SDS011;33123;50.118;10.272;2022-11-06T11:13:45;1.25;;;1.15;;
47373;SDS011;33123;50.118;10.272;2022-11-06T11:16:14;2.20;;;1.75;;
47373;SDS011;33123;50.118;10.272;2022-11-06T11:18:43;2.08;;;1.95;;
47373;SDS011;33123;50.118;10.272;2022-11-06T11:21:13;2.38;;;2.17;;
47373;SDS011;33123;50.118;10.272;2022-11-06T11:24:03;2.97;;;1.73;;
47373;SDS011;33123;50.118;10.272;2022-11-06T11:26:32;1.58;;;1.38;;
47373;SDS011;33123;50.118;10.272;2022-11-06T11:29:10;1.75;;;1.65;;
47373;SDS011;33123;50.118;10.272;2022-11-06T11:31:40;2.10;;;1.90;;
47373;SDS011;33123;50.118;10.272;2022-11-06T11:34:14;1.73;;;1.63;;
47373;SDS011;33123;50.118;10.272;2022-11-06T11:36:48;1.67;;;1.58;;
47373;SDS011;33123;50.118;10.272;2022-11-06T11:39:18;2.33;;;2.08;;
47373;SDS011;33123;50.118;10.272;2022-11-06T11:41:48;2.03;;;1.55;;
47373;SDS011;33123;50.118;10.272;2022-11-06T11:44:15;2.45;;;1.98;;
47373;SDS011;33123;50.118;10.272;2022-11-06T11:46:47;1.98;;;1.88;;
47373;SDS011;33123;50.118;10.272;2022-11-06T11:49:24;1.55;;;1.45;;
47373;SDS011;33123;50.118;10.272;2022-11-06T11:51:53;3.75;;;1.75;;
47373;SDS011;33123;50.118;10.272;2022-11-06T11:54:22;2.08;;;1.88;;
47373;SDS011;33123;50.118;10.272;2022-11-06T11:56:51;2.38;;;2.17;;
47373;SDS011;33123;50.118;10.272;2022-11-06T11:59:20;1.38;;;1.27;;
47373;SDS011;33123;50.118;10.272;2022-11-06T12:01:48;1.48;;;1.38;;
47373;SDS011;33123;50.118;10.272;2022-11-06T12:04:19;2.17;;;1.90;;
47373;SDS011;33123;50.118;10.272;2022-11-06T12:06:50;1.30;;;1.20;;
47373;SDS011;33123;50.118;10.272;2022-11-06T12:09:19;5.20;;;3.38;;
47373;SDS011;33123;50.118;10.272;2022-11-06T12:11:49;1.77;;;1.67;;
47373;SDS011;33123;50.118;10.272;2022-11-06T12:14:22;3.00;;;1.90;;
47373;SDS011;33123;50.118;10.272;2022-11-06T12:16:52;2.00;;;1.90;;
47373;SDS011;33123;50.118;10.272;2022-11-06T12:19:23;2.42;;;2.05;;
47373;SDS011;33123;50.118;10.272;2022-11-06T12:21:54;2.05;;;1.88;;
47373;SDS011;33123;50.118;10.272;2022-11-06T12:24:29;1.77;;;1.50;;
47373;SDS011;33123;50.118;10.272;2022-11-06T12:26:59;2.40;;;2.20;;
47373;SDS011;33123;50.118;10.272;2022-11-06T12:29:30;2.53;;;2.28;;
47373;SDS011;33123;50.118;10.272;2022-11-06T12:32:01;2.38;;;2.17;;
47373;SDS011;33123;50.118;10.272;2022-11-06T12:34:32;1.85;;;1.70;;
47373;SDS011;33123;50.118;10.272;2022-11-06T12:37:09;2.63;;;1.90;;
47373;SDS011;33123;50.118;10.272;2022-11-06T12:39:45;1.63;;;1.33;;
47373;SDS011;33123;50.118;10.272;2022-11-06T12:42:17;2.03;;;1.52;;
47373;SDS011;33123;50.118;10.272;2022-11-06T12:44:47;3.55;;;2.97;;
47373;SDS011;33123;50.118;10.272;2022-11-06T12:47:17;2.97;;;2.55;;
47373;SDS011;33123;50.118;10.272;2022-11-06T12:50:07;7.90;;;1.77;;
47373;SDS011;33123;50.118;10.272;2022-11-06T12:52:47;2.03;;;1.92;;
47373;SDS011;33123;50.118;10.272;2022-11-06T12:55:25;2.38;;;1.83;;
47373;SDS011;33123;50.118;10.272;2022-11-06T12:58:11;3.88;;;1.75;;
47373;SDS011;33123;50.118;10.272;2022-11-06T13:00:51;1.25;;;1.15;;
47373;SDS011;33123;50.118;10.272;2022-11-06T13:06:22;4.22;;;1.90;;
47373;SDS011;33123;50.118;10.272;2022-11-06T13:08:57;1.75;;;1.65;;
47373;SDS011;33123;50.118;10.272;2022-11-06T13:11:32;1.77;;;1.67;;
47373;SDS011;33123;50.118;10.272;2022-11-06T13:14:09;2.38;;;1.88;;
47373;SDS011;33123;50.118;10.272;2022-11-06T13:16:44;1.23;;;1.13;;
47373;SDS011;33123;50.118;10.272;2022-11-06T13:19:18;1.52;;;1.35;;
47373;SDS011;33123;50.118;10.272;2022-11-06T13:22:00;3.45;;;3.15;;
47373;SDS011;33123;50.118;10.272;2022-11-06T13:24:35;3.15;;;2.28;;
47373;SDS011;33123;50.118;10.272;2022-11-06T13:27:14;3.58;;;2.58;;
47373;SDS011;33123;50.118;10.272;2022-11-06T13:29:49;2.47;;;2.28;;
47373;SDS011;33123;50.118;10.272;2022-11-06T13:32:19;2.08;;;1.88;;
47373;SDS011;33123;50.118;10.272;2022-11-06T13:34:49;2.40;;;2.17;;
47373;SDS011;33123;50.118;10.272;2022-11-06T13:37:22;3.75;;;2.53;;
47373;SDS011;33123;50.118;10.272;2022-11-06T13:39:58;2.25;;;2.05;;
47373;SDS011;33123;50.118;10.272;2022-11-06T13:42:33;2.65;;;2.22;;
47373;SDS011;33123;50.118;10.272;2022-11-06T13:45:05;3.25;;;2.75;;
47373;SDS011;33123;50.118;10.272;2022-11-06T13:47:34;2.65;;;2.03;;
47373;SDS011;33123;50.118;10.272;2022-11-06T13:50:10;1.63;;;1.52;;
47373;SDS011;33123;50.118;10.272;2022-11-06T13:52:45;2.33;;;2.13;;
47373;SDS011;33123;50.118;10.272;2022-11-06T13:55:19;2.42;;;2.05;;
47373;SDS011;33123;50.118;10.272;2022-11-06T14:00:45;3.75;;;2.67;;
47373;SDS011;33123;50.118;10.272;2022-11-06T14:06:15;2.85;;;2.58;;
47373;SDS011;33123;50.118;10.272;2022-11-06T14:08:46;3.65;;;3.35;;
47373;SDS011;33123;50.118;10.272;2022-11-06T14:11:17;2.33;;;2.10;;
47373;SDS011;33123;50.118;10.272;2022-11-06T14:13:57;2.42;;;2.22;;
47373;SDS011;33123;50.118;10.272;2022-11-06T14:16:27;3.47;;;3.17;;
47373;SDS011;33123;50.118;10.272;2022-11-06T14:19:01;2.25;;;2.05;;
47373;SDS011;33123;50.118;10.272;2022-11-06T14:27:05;3.38;;;2.53;;
47373;SDS011;33123;50.118;10.272;2022-11-06T14:32:34;3.08;;;2.63;;
47373;SDS011;33123;50.118;10.272;2022-11-06T14:38:10;2.70;;;2.45;;
47373;SDS011;33123;50.118;10.272;2022-11-06T14:40:42;4.13;;;2.65;;
47373;SDS011;33123;50.118;10.272;2022-11-06T14:43:15;2.60;;;2.40;;
47373;SDS011;33123;50.118;10.272;2022-11-06T14:45:50;3.22;;;2.55;;
47373;SDS011;33123;50.118;10.272;2022-11-06T14:48:26;4.25;;;2.97;;
47373;SDS011;33123;50.118;10.272;2022-11-06T14:50:55;2.67;;;2.20;;
47373;SDS011;33123;50.118;10.272;2022-11-06T14:53:24;3.63;;;3.33;;
47373;SDS011;33123;50.118;10.272;2022-11-06T14:55:55;5.53;;;3.65;;
47373;SDS011;33123;50.118;10.272;2022-11-06T14:58:24;2.50;;;2.30;;
47373;SDS011;33123;50.118;10.272;2022-11-06T15:00:57;3.15;;;2.85;;
47373;SDS011;33123;50.118;10.272;2022-11-06T15:03:33;3.33;;;2.50;;
47373;SDS011;33123;50.118;10.272;2022-11-06T15:06:06;2.72;;;2.38;;
47373;SDS011;33123;50.118;10.272;2022-11-06T15:08:51;2.83;;;2.60;;
47373;SDS011;33123;50.118;10.272;2022-11-06T15:17:20;3.42;;;3.15;;
47373;SDS011;33123;50.118;10.272;2022-11-06T15:19:51;3.70;;;3.42;;
47373;SDS011;33123;50.118;10.272;2022-11-06T15:22:26;3.75;;;3.05;;
47373;SDS011;33123;50.118;10.272;2022-11-06T15:24:59;6.18;;;3.92;;
47373;SDS011;33123;50.118;10.272;2022-11-06T15:27:32;5.70;;;3.95;;